createdAt,value
2022-12-23T00:11:17.772Z,12.35
2022-12-23T04:43:57.551Z,12.24
2022-12-23T05:58:22.099Z,12.21
2022-12-23T06:08:59.194Z,12.18
2022-12-23T06:11:50.703Z,12.21
2022-12-23T06:16:01.145Z,12.12
2022-12-23T06:19:36.591Z,12.11
2022-12-23T06:24:31.098Z,12.08
2022-12-23T06:31:25.855Z,12.08
2022-12-23T06:35:36.183Z,12.04
2022-12-23T06:41:55.023Z,11.99
2022-12-23T06:46:38.776Z,12.05
2022-12-23T06:52:23.483Z,11.99
2022-12-23T06:56:52.507Z,12.03
2022-12-23T07:01:11.882Z,11.97
2022-12-23T07:09:11.917Z,11.98
2022-12-23T07:13:12.443Z,11.99
2022-12-23T07:17:21.807Z,12.00
2022-12-23T07:21:55.332Z,11.99
2022-12-23T07:28:46.785Z,12.00
2022-12-23T07:32:10.717Z,12.06
2022-12-23T07:37:03.045Z,12.03
2022-12-23T07:40:19.768Z,12.06
2022-12-23T07:44:08.991Z,12.03
2022-12-23T07:49:11.420Z,12.01
2022-12-23T07:54:53.330Z,12.00
2022-12-23T07:58:42.452Z,11.98
2022-12-23T08:03:35.196Z,11.97
2022-12-23T08:09:24.096Z,11.97
2022-12-23T08:26:33.578Z,12.05
2022-12-23T08:29:39.559Z,12.08
2022-12-23T08:34:51.757Z,11.99
2022-12-23T08:42:49.336Z,11.98
2022-12-23T08:49:55.142Z,11.98
2022-12-23T08:59:42.735Z,12.00
2022-12-23T09:02:34.439Z,12.04
2022-12-23T09:05:20.074Z,12.04
2022-12-23T09:09:17.493Z,11.98
2022-12-23T09:13:49.213Z,11.99
2022-12-23T09:18:33.562Z,12.06
2022-12-23T09:23:04.623Z,12.02
2022-12-23T09:26:50.968Z,12.04
2022-12-23T09:31:20.413Z,12.08
2022-12-23T09:36:43.550Z,12.06
2022-12-23T09:39:48.436Z,12.12
2022-12-23T09:49:53.084Z,12.20
2022-12-23T10:06:47.437Z,12.29
2022-12-23T10:12:42.717Z,12.31
2022-12-23T10:17:10.517Z,12.32
2022-12-23T10:21:18.587Z,12.34
2022-12-23T10:24:23.740Z,12.39
2022-12-23T10:32:19.752Z,12.43
2022-12-23T10:35:26.597Z,13.09
2022-12-23T10:40:08.042Z,12.56
2022-12-23T10:45:24.687Z,12.46
2022-12-23T10:51:24.935Z,12.50
2022-12-23T10:57:15.560Z,12.56
2022-12-23T11:01:27.060Z,12.60
2022-12-23T11:14:51.311Z,12.76
2022-12-23T11:27:35.038Z,12.81
2022-12-23T13:10:59.885Z,12.91
2022-12-23T13:21:58.621Z,12.90
2022-12-23T14:17:47.948Z,12.43
2022-12-23T17:33:19.162Z,13.27
2022-12-23T17:52:15.979Z,13.57
2022-12-23T19:32:17.017Z,13.80
2022-12-23T20:22:15.475Z,13.82
2022-12-23T21:12:18.315Z,13.53
